createdAt,value
2018-04-08T00:02:26.045Z,100256.47
2018-04-08T00:04:53.551Z,100259.29
2018-04-08T00:07:20.957Z,100263.52
2018-04-08T00:09:48.362Z,100257.37
2018-04-08T00:12:15.763Z,100252.96
2018-04-08T00:14:43.154Z,100256.05
2018-04-08T00:17:10.555Z,100254.66
2018-04-08T00:19:37.951Z,100251.89
2018-04-08T00:22:05.353Z,100250.75
2018-04-08T00:24:32.750Z,100254.91
2018-04-08T00:27:00.146Z,100251.82
2018-04-08T00:29:27.537Z,100245.37
2018-04-08T00:31:54.942Z,100247.12
2018-04-08T00:34:22.338Z,100248.41
2018-04-08T00:36:49.743Z,100241.33
2018-04-08T00:39:17.142Z,100238.44
2018-04-08T00:41:44.639Z,100233.80
2018-04-08T00:44:12.031Z,100240.98
2018-04-08T00:46:39.552Z,100238.25
2018-04-08T00:49:06.947Z,100238.22
2018-04-08T00:51:34.347Z,100235.57
2018-04-08T00:54:13.607Z,100233.86
2018-04-08T00:56:41.007Z,100232.12
2018-04-08T00:59:08.505Z,100230.17
2018-04-08T01:01:35.966Z,100229.72
2018-04-08T01:04:03.420Z,100228.57
2018-04-08T01:06:30.878Z,100222.83
2018-04-08T01:08:58.334Z,100220.42
2018-04-08T01:11:25.786Z,100219.16
2018-04-08T01:13:53.183Z,100216.72
2018-04-08T01:16:20.603Z,100218.25
2018-04-08T01:18:48.014Z,100217.95
2018-04-08T01:21:15.416Z,100216.23
2018-04-08T01:23:42.817Z,100220.21
2018-04-08T01:26:10.223Z,100214.48
2018-04-08T01:28:37.636Z,100215.84
2018-04-08T01:31:05.059Z,100216.81
2018-04-08T01:33:32.582Z,100212.92
2018-04-08T01:35:59.974Z,100210.79
2018-04-08T01:38:27.375Z,100210.45
2018-04-08T01:40:54.771Z,100211.53
2018-04-08T01:43:22.190Z,100211.95
2018-04-08T01:45:49.586Z,100209.55
2018-04-08T01:48:17.201Z,100210.73
2018-04-08T01:50:44.594Z,100206.66
2018-04-08T01:53:12.059Z,100209.64
2018-04-08T01:55:39.454Z,100209.13
2018-04-08T01:58:06.850Z,100208.75
2018-04-08T02:00:34.249Z,100203.82
2018-04-08T02:03:01.721Z,100209.94
2018-04-08T02:05:29.133Z,100201.24
2018-04-08T02:07:56.559Z,100205.45
2018-04-08T02:10:24.046Z,100204.80
2018-04-08T02:12:51.450Z,100200.89
2018-04-08T02:15:18.843Z,100204.88
2018-04-08T02:17:46.315Z,100203.56
2018-04-08T02:20:13.714Z,100196.40
2018-04-08T02:22:42.067Z,100202.68
2018-04-08T02:25:09.450Z,100197.54
2018-04-08T02:27:36.962Z,100201.52
2018-04-08T02:30:04.452Z,100197.69
2018-04-08T02:32:31.887Z,100191.71
2018-04-08T02:34:59.283Z,100195.47
2018-04-08T02:37:26.686Z,100204.22
2018-04-08T02:39:55.107Z,100198.58
2018-04-08T02:42:22.527Z,100203.05
2018-04-08T02:44:49.924Z,100206.83
2018-04-08T02:47:17.327Z,100201.67
2018-04-08T02:49:44.724Z,100200.32
2018-04-08T02:52:12.132Z,100201.66
2018-04-08T02:54:39.538Z,100202.73
2018-04-08T02:57:06.935Z,100202.23
2018-04-08T02:59:34.336Z,100203.34
2018-04-08T03:02:01.842Z,100202.00
2018-04-08T03:04:29.242Z,100198.03
2018-04-08T03:06:56.642Z,100195.95
2018-04-08T03:09:24.044Z,100197.45
2018-04-08T03:11:51.468Z,100191.05
2018-04-08T03:14:18.919Z,100194.29
2018-04-08T03:16:46.310Z,100194.02
2018-04-08T03:19:13.713Z,100192.38
2018-04-08T03:21:41.114Z,100190.22
2018-04-08T03:24:08.549Z,100184.29
2018-04-08T03:26:36.002Z,100186.09
2018-04-08T03:29:03.470Z,100181.53
2018-04-08T03:31:30.959Z,100187.31
2018-04-08T03:33:58.358Z,100184.97
2018-04-08T03:36:25.749Z,100184.73
2018-04-08T03:38:53.231Z,100172.77
2018-04-08T03:41:20.643Z,100176.56
2018-04-08T03:43:48.098Z,100183.36
2018-04-08T03:46:15.555Z,100178.09
2018-04-08T03:48:42.955Z,100174.93
2018-04-08T03:51:10.350Z,100176.32
2018-04-08T03:53:37.798Z,100171.06
2018-04-08T03:56:05.289Z,100174.91
2018-04-08T03:58:32.735Z,100171.46
2018-04-08T04:01:00.143Z,100175.50
2018-04-08T04:03:27.566Z,100164.41
2018-04-08T04:05:54.971Z,100164.47
2018-04-08T04:08:22.373Z,100164.48
2018-04-08T04:10:49.767Z,100172.17
2018-04-08T04:13:17.168Z,100171.05
2018-04-08T04:15:44.568Z,100169.25
2018-04-08T04:18:23.966Z,100169.37
2018-04-08T04:21:03.176Z,100167.35
2018-04-08T04:23:42.399Z,100164.06
2018-04-08T04:26:21.434Z,100165.94
2018-04-08T04:28:48.835Z,100153.17
2018-04-08T04:31:16.237Z,100160.00
2018-04-08T04:33:43.631Z,100159.10
2018-04-08T04:36:11.094Z,100162.74
2018-04-08T04:38:38.543Z,100169.09
2018-04-08T04:41:05.939Z,100165.67
2018-04-08T04:43:33.405Z,100167.33
2018-04-08T04:46:00.792Z,100166.78
2018-04-08T04:48:28.207Z,100164.63
2018-04-08T04:50:55.598Z,100167.48
2018-04-08T04:53:23.005Z,100168.01
2018-04-08T04:55:50.399Z,100159.17
2018-04-08T04:58:17.826Z,100162.77
2018-04-08T05:00:45.219Z,100159.32
2018-04-08T05:03:12.625Z,100158.26
2018-04-08T05:05:40.011Z,100156.66
2018-04-08T05:08:07.442Z,100164.36
2018-04-08T05:10:34.926Z,100156.94
2018-04-08T05:13:02.302Z,100156.70
2018-04-08T05:15:29.706Z,100149.23
2018-04-08T05:17:57.107Z,100151.69
2018-04-08T05:20:24.526Z,100157.22
2018-04-08T05:22:51.982Z,100155.19
2018-04-08T05:25:19.393Z,100157.59
2018-04-08T05:27:46.788Z,100161.32
2018-04-08T05:30:14.244Z,100152.75
2018-04-08T05:32:41.622Z,100152.95
2018-04-08T05:35:09.018Z,100147.88
2018-04-08T05:37:36.517Z,100151.48
2018-04-08T05:40:03.975Z,100149.16
2018-04-08T05:42:31.379Z,100146.52
2018-04-08T05:44:58.778Z,100149.65
2018-04-08T05:47:26.208Z,100156.20
2018-04-08T05:49:53.606Z,100154.91
2018-04-08T05:52:21.003Z,100158.66
2018-04-08T05:54:48.406Z,100151.88
2018-04-08T05:57:15.802Z,100153.92
2018-04-08T05:59:43.206Z,100151.00
2018-04-08T06:02:10.598Z,100150.88
2018-04-08T06:04:38.000Z,100151.05
2018-04-08T06:07:05.390Z,100152.99
2018-04-08T06:09:32.789Z,100146.09
2018-04-08T06:12:00.222Z,100149.50
2018-04-08T06:14:27.710Z,100146.05
2018-04-08T06:16:55.137Z,100154.08
2018-04-08T06:19:22.507Z,100151.77
2018-04-08T06:21:49.976Z,100149.26
2018-04-08T06:24:17.374Z,100145.37
2018-04-08T06:26:44.805Z,100145.72
2018-04-08T06:29:12.194Z,100146.79
2018-04-08T06:31:39.599Z,100143.83
2018-04-08T06:34:06.999Z,100148.95
2018-04-08T06:36:34.398Z,100144.58
2018-04-08T06:39:01.791Z,100136.70
2018-04-08T06:41:29.195Z,100133.12
2018-04-08T06:43:56.599Z,100134.34
2018-04-08T06:46:24.031Z,100139.41
2018-04-08T06:48:51.427Z,100142.13
2018-04-08T06:51:18.944Z,100141.88
2018-04-08T06:53:46.398Z,100145.48
2018-04-08T06:56:13.795Z,100143.96
2018-04-08T06:58:41.206Z,100145.53
2018-04-08T07:01:08.606Z,100143.55
2018-04-08T07:03:36.007Z,100144.59
2018-04-08T07:06:03.514Z,100150.92
2018-04-08T07:08:30.934Z,100148.70
2018-04-08T07:10:58.322Z,100146.02
2018-04-08T07:13:25.727Z,100145.33
2018-04-08T07:15:53.199Z,100145.94
2018-04-08T07:18:20.651Z,100147.10
2018-04-08T07:20:47.999Z,100145.98
2018-04-08T07:23:15.476Z,100137.67
2018-04-08T07:25:42.871Z,100136.92
2018-04-08T07:28:10.276Z,100137.55
2018-04-08T07:30:37.743Z,100137.67
2018-04-08T07:33:05.163Z,100132.77
2018-04-08T07:35:32.559Z,100135.22
2018-04-08T07:37:59.990Z,100127.38
2018-04-08T07:40:27.458Z,100134.31
2018-04-08T07:42:54.858Z,100132.53
2018-04-08T07:45:22.278Z,100132.51
2018-04-08T07:47:49.678Z,100144.66
2018-04-08T07:50:17.070Z,100142.48
2018-04-08T07:52:44.466Z,100143.31
2018-04-08T07:55:11.863Z,100145.92
2018-04-08T07:57:39.267Z,100146.49
2018-04-08T08:00:06.662Z,100140.58
2018-04-08T08:02:34.063Z,100135.17
2018-04-08T08:05:01.482Z,100132.67
2018-04-08T08:07:28.892Z,100132.36
2018-04-08T08:09:56.286Z,100137.59
2018-04-08T08:12:23.794Z,100132.80
2018-04-08T08:14:51.247Z,100135.25
2018-04-08T08:17:18.708Z,100128.27
2018-04-08T08:19:46.106Z,100131.29
2018-04-08T08:22:13.511Z,100131.23
2018-04-08T08:24:41.061Z,100128.45
2018-04-08T08:27:08.447Z,100132.33
2018-04-08T08:29:35.849Z,100130.50
2018-04-08T08:32:03.251Z,100132.37
2018-04-08T08:34:30.646Z,100132.37
2018-04-08T08:36:58.039Z,100128.13
2018-04-08T08:39:25.534Z,100128.59
2018-04-08T08:41:52.922Z,100127.62
2018-04-08T08:44:20.327Z,100131.48
2018-04-08T08:46:47.793Z,100136.30
2018-04-08T08:49:15.250Z,100127.88
2018-04-08T08:51:42.704Z,100131.55
2018-04-08T08:54:10.107Z,100132.69
2018-04-08T08:56:37.495Z,100133.32
2018-04-08T08:59:04.967Z,100133.71
2018-04-08T09:01:32.366Z,100133.64
2018-04-08T09:03:59.770Z,100131.87
2018-04-08T09:06:27.238Z,100126.60
2018-04-08T09:08:54.638Z,100129.33
2018-04-08T09:11:22.036Z,100129.86
2018-04-08T09:13:49.511Z,100124.38
2018-04-08T09:16:16.907Z,100126.61
2018-04-08T09:18:54.218Z,100120.91
2018-04-08T09:24:27.214Z,100121.55
2018-04-08T09:26:54.607Z,100117.58
2018-04-08T09:29:22.006Z,100113.86
2018-04-08T09:31:49.426Z,100125.03
2018-04-08T09:34:16.826Z,100123.32
2018-04-08T09:36:44.240Z,100125.97
2018-04-08T09:39:11.693Z,100126.97
2018-04-08T09:41:39.154Z,100123.77
2018-04-08T09:44:06.549Z,100117.69
2018-04-08T09:46:33.965Z,100117.20
2018-04-08T09:49:01.363Z,100120.33
2018-04-08T09:51:28.763Z,100115.16
2018-04-08T09:53:56.159Z,100118.34
2018-04-08T09:56:23.594Z,100114.04
2018-04-08T09:58:50.982Z,100111.80
2018-04-08T10:04:19.301Z,100107.52
2018-04-08T10:06:46.703Z,100102.70
2018-04-08T10:09:14.118Z,100107.91
2018-04-08T10:11:41.567Z,100099.00
2018-04-08T10:14:08.959Z,100103.20
2018-04-08T10:16:36.362Z,100095.55
2018-04-08T10:19:03.763Z,100098.57
2018-04-08T10:21:31.168Z,100094.67
2018-04-08T10:23:58.559Z,100100.35
2018-04-08T10:26:26.014Z,100105.84
2018-04-08T10:28:53.406Z,100102.17
2018-04-08T10:31:20.830Z,100094.70
2018-04-08T10:33:48.227Z,100090.56
2018-04-08T10:36:15.647Z,100088.58
2018-04-08T10:38:43.111Z,100087.07
2018-04-08T10:41:10.503Z,100089.02
2018-04-08T10:43:37.895Z,100086.27
2018-04-08T10:46:05.357Z,100081.44
2018-04-08T10:48:32.738Z,100080.69
2018-04-08T10:51:00.143Z,100077.33
2018-04-08T10:53:27.530Z,100071.31
2018-04-08T10:55:54.932Z,100077.30
2018-04-08T10:58:22.422Z,100081.47
2018-04-08T11:00:49.823Z,100070.50
2018-04-08T11:03:17.222Z,100073.91
2018-04-08T11:05:44.690Z,100067.87
2018-04-08T11:08:12.155Z,100069.58
2018-04-08T11:10:39.559Z,100071.22
2018-04-08T11:13:06.946Z,100074.27
2018-04-08T11:15:34.342Z,100069.95
2018-04-08T11:18:01.739Z,100073.12
2018-04-08T11:20:29.150Z,100063.68
2018-04-08T11:22:56.564Z,100065.64
2018-04-08T11:25:23.962Z,100061.86
2018-04-08T11:27:51.441Z,100057.73
2018-04-08T11:30:18.843Z,100059.22
2018-04-08T11:32:46.254Z,100058.53
2018-04-08T11:35:13.656Z,100055.68
2018-04-08T11:37:41.059Z,100046.67
2018-04-08T11:40:08.490Z,100046.30
2018-04-08T11:42:35.890Z,100051.44
2018-04-08T11:45:03.289Z,100051.89
2018-04-08T11:47:30.711Z,100049.96
2018-04-08T11:49:58.115Z,100048.92
2018-04-08T11:52:25.557Z,100045.21
2018-04-08T11:54:52.902Z,100045.83
2018-04-08T11:57:20.314Z,100045.89
2018-04-08T11:59:47.734Z,100051.02
2018-04-08T12:02:15.135Z,100041.21
2018-04-08T12:04:42.550Z,100042.31
2018-04-08T12:07:10.012Z,100033.23
2018-04-08T12:09:37.462Z,100032.08
2018-04-08T12:12:04.922Z,100026.09
2018-04-08T12:14:32.318Z,100029.59
2018-04-08T12:16:59.734Z,100029.97
2018-04-08T12:19:27.126Z,100024.25
2018-04-08T12:21:54.522Z,100020.50
2018-04-08T12:24:21.932Z,100016.10
2018-04-08T12:26:49.321Z,100020.72
2018-04-08T12:29:16.711Z,100017.67
2018-04-08T12:31:44.114Z,100007.77
2018-04-08T12:34:11.510Z,100006.64
2018-04-08T12:36:38.902Z,100006.04
2018-04-08T12:39:06.336Z,100014.23
2018-04-08T12:41:33.730Z,100009.61
2018-04-08T12:44:01.135Z,100009.52
2018-04-08T12:46:28.536Z,100009.84
2018-04-08T12:48:55.930Z,100009.31
2018-04-08T12:51:23.428Z,100007.85
2018-04-08T12:53:50.816Z,100009.55
2018-04-08T12:56:18.243Z,99999.75
2018-04-08T12:58:45.694Z,99999.20
2018-04-08T13:01:13.150Z,99993.13
2018-04-08T13:03:40.610Z,99993.83
2018-04-08T13:06:08.002Z,99992.53
2018-04-08T13:08:36.287Z,99992.55
2018-04-08T13:11:03.683Z,99987.56
2018-04-08T13:13:31.070Z,99986.64
2018-04-08T13:15:58.468Z,99980.17
2018-04-08T13:18:26.846Z,99982.11
2018-04-08T13:20:54.236Z,99978.45
2018-04-08T13:23:21.619Z,99974.48
2018-04-08T13:25:49.061Z,99975.17
2018-04-08T13:28:16.447Z,99962.63
2018-04-08T13:30:43.875Z,99962.50
2018-04-08T13:33:11.262Z,99952.81
2018-04-08T13:35:38.655Z,99957.75
2018-04-08T13:38:06.147Z,99958.42
2018-04-08T13:40:33.594Z,99960.30
2018-04-08T13:43:00.986Z,99962.13
2018-04-08T13:45:28.406Z,99955.73
2018-04-08T13:47:55.823Z,99953.49
2018-04-08T13:50:23.206Z,99955.51
2018-04-08T13:52:50.642Z,99947.00
2018-04-08T13:55:18.026Z,99940.99
2018-04-08T13:57:45.414Z,99938.50
2018-04-08T14:00:12.849Z,99933.77
2018-04-08T14:02:40.239Z,99930.95
2018-04-08T14:05:07.870Z,99931.11
2018-04-08T14:07:36.196Z,99927.45
2018-04-08T14:10:03.585Z,99930.95
2018-04-08T14:12:30.975Z,99926.13
2018-04-08T14:14:58.420Z,99923.88
2018-04-08T14:17:25.814Z,99923.14
2018-04-08T14:19:53.195Z,99923.72
2018-04-08T14:22:20.682Z,99922.98
2018-04-08T14:24:48.143Z,99923.77
2018-04-08T14:27:15.539Z,99922.42
2018-04-08T14:29:42.926Z,99921.37
2018-04-08T14:32:10.323Z,99924.27
2018-04-08T14:34:37.734Z,99919.29
2018-04-08T14:37:05.123Z,99914.59
2018-04-08T14:39:32.542Z,99914.91
2018-04-08T14:42:00.061Z,99914.36
2018-04-08T14:44:27.442Z,99916.61
2018-04-08T14:46:54.920Z,99911.98
2018-04-08T14:49:22.374Z,99908.56
2018-04-08T14:51:49.762Z,99908.30
2018-04-08T14:54:17.190Z,99908.64
2018-04-08T14:56:44.573Z,99906.75
2018-04-08T14:59:11.999Z,99901.84
2018-04-08T15:01:46.661Z,99907.53
2018-04-08T15:04:06.808Z,99906.99
2018-04-08T15:06:34.198Z,99898.89
2018-04-08T15:09:01.595Z,99902.69
2018-04-08T15:11:28.986Z,99898.49
2018-04-08T15:13:56.386Z,99897.95
2018-04-08T15:16:23.778Z,99887.15
2018-04-08T15:18:51.166Z,99889.48
2018-04-08T15:21:18.559Z,99891.31
2018-04-08T15:23:45.959Z,99879.43
2018-04-08T15:26:13.371Z,99874.84
2018-04-08T15:28:41.802Z,99874.69
2018-04-08T15:31:09.198Z,99873.89
2018-04-08T15:33:36.594Z,99874.59
2018-04-08T15:36:03.982Z,99876.59
2018-04-08T15:38:31.385Z,99874.17
2018-04-08T15:40:58.778Z,99873.47
2018-04-08T15:43:26.175Z,99871.37
2018-04-08T15:45:53.566Z,99872.59
2018-04-08T15:48:20.962Z,99872.80
2018-04-08T15:50:48.402Z,99874.70
2018-04-08T15:53:15.795Z,99870.84
2018-04-08T15:55:43.267Z,99870.91
2018-04-08T15:58:10.711Z,99870.74
2018-04-08T16:00:38.134Z,99873.86
2018-04-08T16:03:05.598Z,99872.19
2018-04-08T16:05:32.993Z,99864.54
2018-04-08T16:08:00.385Z,99873.69
2018-04-08T16:10:27.775Z,99875.23
2018-04-08T16:12:55.164Z,99884.59
2018-04-08T16:15:22.576Z,99882.17
2018-04-08T16:17:49.959Z,99880.16
2018-04-08T16:20:17.355Z,99872.80
2018-04-08T16:22:45.704Z,99878.44
2018-04-08T16:25:13.103Z,99878.59
2018-04-08T16:27:40.557Z,99876.77
2018-04-08T16:30:07.931Z,99878.58
2018-04-08T16:32:35.318Z,99877.84
2018-04-08T16:35:02.712Z,99875.37
2018-04-08T16:37:30.096Z,99878.62
2018-04-08T16:39:57.483Z,99876.53
2018-04-08T16:42:24.905Z,99876.08
2018-04-08T16:44:52.367Z,99875.67
2018-04-08T16:47:19.754Z,99875.83
2018-04-08T16:49:47.146Z,99869.61
2018-04-08T16:52:14.595Z,99876.09
2018-04-08T16:54:42.007Z,99869.50
2018-04-08T16:57:09.403Z,99875.80
2018-04-08T16:59:36.790Z,99873.53
2018-04-08T17:02:04.178Z,99873.06
2018-04-08T17:04:31.621Z,99875.91
2018-04-08T17:06:58.983Z,99877.47
2018-04-08T17:09:26.420Z,99879.28
2018-04-08T17:11:53.869Z,99876.69
2018-04-08T17:14:21.309Z,99883.29
2018-04-08T17:16:48.770Z,99883.41
2018-04-08T17:19:16.158Z,99887.58
2018-04-08T17:21:43.549Z,99886.19
2018-04-08T17:24:10.930Z,99889.20
2018-04-08T17:26:38.336Z,99894.65
2018-04-08T17:29:05.727Z,99898.06
2018-04-08T17:31:33.127Z,99904.20
2018-04-08T17:34:00.527Z,99902.42
2018-04-08T17:36:27.914Z,99905.48
2018-04-08T17:38:55.397Z,99911.59
2018-04-08T17:41:22.785Z,99913.93
2018-04-08T17:43:50.453Z,99917.03
2018-04-08T17:46:17.842Z,99906.03
2018-04-08T17:48:45.322Z,99909.16
2018-04-08T17:51:12.723Z,99908.39
2018-04-08T17:53:40.111Z,99911.28
2018-04-08T17:56:07.511Z,99919.19
2018-04-08T17:58:34.912Z,99917.14
2018-04-08T18:01:02.358Z,99926.69
2018-04-08T18:03:29.699Z,99926.42
2018-04-08T18:05:57.103Z,99926.89
2018-04-08T18:08:24.493Z,99927.78
2018-04-08T18:10:51.900Z,99932.52
2018-04-08T18:13:19.293Z,99937.17
2018-04-08T18:15:46.686Z,99940.09
2018-04-08T18:18:14.097Z,99938.95
2018-04-08T18:20:41.560Z,99943.09
2018-04-08T18:23:08.970Z,99939.67
2018-04-08T18:25:36.359Z,99945.58
2018-04-08T18:28:03.757Z,99944.59
2018-04-08T18:30:31.179Z,99951.22
2018-04-08T18:32:58.585Z,99957.33
2018-04-08T18:35:26.111Z,99951.91
2018-04-08T18:37:53.517Z,99956.81
2018-04-08T18:40:20.903Z,99965.09
2018-04-08T18:42:48.306Z,99961.98
2018-04-08T18:45:15.739Z,99961.79
2018-04-08T18:47:43.095Z,99971.67
2018-04-08T18:50:10.482Z,99975.44
2018-04-08T18:52:37.874Z,99972.35
2018-04-08T18:55:05.285Z,99973.88
2018-04-08T18:57:32.795Z,99971.30
2018-04-08T19:00:00.198Z,99979.36
2018-04-08T19:02:27.595Z,99983.60
2018-04-08T19:04:55.038Z,99986.80
2018-04-08T19:07:22.523Z,99992.79
2018-04-08T19:09:49.914Z,99994.02
2018-04-08T19:12:17.314Z,99996.50
2018-04-08T19:14:50.282Z,100001.55
2018-04-08T19:17:23.175Z,100000.03
2018-04-08T19:19:50.575Z,100001.79
2018-04-08T19:22:17.988Z,100001.38
2018-04-08T19:24:45.434Z,100003.23
2018-04-08T19:27:18.404Z,100010.34
2018-04-08T19:29:45.847Z,100010.82
2018-04-08T19:32:13.338Z,100008.64
2018-04-08T19:34:40.732Z,100015.34
2018-04-08T19:37:08.139Z,100008.58
2018-04-08T19:39:35.546Z,100014.52
2018-04-08T19:42:02.943Z,100008.48
2018-04-08T19:44:30.343Z,100012.51
2018-04-08T19:46:57.780Z,100005.56
2018-04-08T19:49:25.222Z,100006.73
2018-04-08T19:51:52.722Z,100003.23
2018-04-08T19:54:20.110Z,99999.96
2018-04-08T19:56:47.515Z,100005.58
2018-04-08T19:59:14.910Z,100003.56
2018-04-08T20:01:42.419Z,100002.30
2018-04-08T20:04:09.815Z,99998.52
2018-04-08T20:06:37.210Z,99994.52
2018-04-08T20:09:04.683Z,99991.91
2018-04-08T20:11:32.153Z,99993.47
2018-04-08T20:13:59.543Z,99990.85
2018-04-08T20:16:26.943Z,99990.50
2018-04-08T20:18:54.419Z,99985.34
2018-04-08T20:21:21.831Z,99981.67
2018-04-08T20:23:49.254Z,99991.69
2018-04-08T20:26:16.643Z,99993.45
2018-04-08T20:28:44.046Z,99989.08
2018-04-08T20:31:11.505Z,99996.16
2018-04-08T20:33:38.942Z,99991.88
2018-04-08T20:36:06.344Z,99993.28
2018-04-08T20:38:33.744Z,99989.48
2018-04-08T20:41:01.168Z,100001.45
2018-04-08T20:43:28.569Z,99987.52
2018-04-08T20:45:55.974Z,99992.68
2018-04-08T20:48:23.479Z,99988.05
2018-04-08T20:50:50.875Z,99996.39
2018-04-08T20:53:18.325Z,99989.30
2018-04-08T20:55:45.739Z,99992.02
2018-04-08T20:58:13.138Z,99986.86
2018-04-08T21:00:40.566Z,99991.28
2018-04-08T21:03:08.018Z,99994.32
2018-04-08T21:05:35.488Z,99994.05
2018-04-08T21:08:02.903Z,99987.83
2018-04-08T21:10:30.303Z,99988.84
2018-04-08T21:12:57.750Z,99988.52
2018-04-08T21:15:25.217Z,99985.12
2018-04-08T21:17:52.607Z,99981.20
2018-04-08T21:20:20.007Z,99980.05
2018-04-08T21:22:47.471Z,99979.85
2018-04-08T21:25:14.872Z,99981.50
2018-04-08T21:27:42.290Z,99973.49
2018-04-08T21:30:09.689Z,99974.78
2018-04-08T21:32:37.092Z,99975.91
2018-04-08T21:35:04.496Z,99976.95
2018-04-08T21:37:31.906Z,99973.11
2018-04-08T21:39:59.309Z,99974.59
2018-04-08T21:42:26.700Z,99982.80
2018-04-08T21:44:54.096Z,99976.39
2018-04-08T21:47:21.543Z,99973.44
2018-04-08T21:49:48.931Z,99973.16
2018-04-08T21:52:16.344Z,99970.70
2018-04-08T21:54:43.763Z,99968.55
2018-04-08T21:57:11.142Z,99969.73
2018-04-08T21:59:38.611Z,99970.66
2018-04-08T22:02:06.062Z,99976.13
2018-04-08T22:04:33.479Z,99976.73
2018-04-08T22:07:00.874Z,99968.41
2018-04-08T22:09:28.355Z,99974.23
2018-04-08T22:11:55.747Z,99974.12
2018-04-08T22:14:23.250Z,99973.22
2018-04-08T22:16:50.661Z,99978.32
2018-04-08T22:19:18.061Z,99985.42
2018-04-08T22:21:45.514Z,99975.79
2018-04-08T22:24:12.914Z,99983.80
2018-04-08T22:26:40.302Z,99968.47
2018-04-08T22:29:07.707Z,99966.17
2018-04-08T22:31:35.143Z,99965.62
2018-04-08T22:34:02.594Z,99967.32
2018-04-08T22:36:30.075Z,99970.96
2018-04-08T22:38:57.473Z,99964.70
2018-04-08T22:41:24.869Z,99972.05
2018-04-08T22:43:52.267Z,99971.94
2018-04-08T22:46:19.658Z,99975.69
2018-04-08T22:48:47.062Z,99973.23
2018-04-08T22:51:14.454Z,99969.26
2018-04-08T22:53:41.855Z,99963.95
2018-04-08T22:56:09.256Z,99952.81
2018-04-08T22:58:36.647Z,99958.16
2018-04-08T23:01:04.043Z,99950.25
2018-04-08T23:03:31.538Z,99953.23
2018-04-08T23:05:58.931Z,99956.34
2018-04-08T23:08:26.351Z,99957.52
2018-04-08T23:10:53.785Z,99956.76
2018-04-08T23:13:21.279Z,99954.31
2018-04-08T23:15:48.754Z,99950.73
2018-04-08T23:18:16.126Z,99951.09
2018-04-08T23:20:43.527Z,99946.73
2018-04-08T23:23:10.923Z,99949.61
2018-04-08T23:25:38.320Z,99943.09
2018-04-08T23:28:05.711Z,99940.84
2018-04-08T23:30:33.107Z,99946.09
2018-04-08T23:33:00.549Z,99943.34
2018-04-08T23:35:27.978Z,99945.34
2018-04-08T23:37:55.368Z,99946.41
2018-04-08T23:40:22.770Z,99943.22
2018-04-08T23:42:50.248Z,99949.09
2018-04-08T23:45:17.652Z,99945.16
2018-04-08T23:47:45.058Z,99948.92
2018-04-08T23:50:12.459Z,99944.77
2018-04-08T23:52:39.846Z,99947.51
2018-04-08T23:55:07.322Z,99948.25
2018-04-08T23:57:34.783Z,99942.38
